sensor_id;sensor_type;location;lat;lon;timestamp;P1;durP1;ratioP1;P2;durP2;ratioP2
69750;SDS011;57335;52.288;6.056;2023-11-18T00:04:14;75.18;;;20.95;;
69750;SDS011;57335;52.288;6.056;2023-11-18T00:06:44;66.00;;;19.75;;
69750;SDS011;57335;52.288;6.056;2023-11-18T00:09:11;69.93;;;20.27;;
69750;SDS011;57335;52.288;6.056;2023-11-18T00:11:41;74.75;;;20.48;;
69750;SDS011;57335;52.288;6.056;2023-11-18T00:14:11;72.13;;;19.98;;
69750;SDS011;57335;52.288;6.056;2023-11-18T00:16:37;60.67;;;18.27;;
69750;SDS011;57335;52.288;6.056;2023-11-18T00:19:05;63.88;;;19.52;;
69750;SDS011;57335;52.288;6.056;2023-11-18T00:21:32;67.38;;;18.60;;
69750;SDS011;57335;52.288;6.056;2023-11-18T00:23:58;65.45;;;18.23;;
69750;SDS011;57335;52.288;6.056;2023-11-18T00:26:25;67.53;;;20.05;;
69750;SDS011;57335;52.288;6.056;2023-11-18T00:28:52;70.53;;;21.25;;
69750;SDS011;57335;52.288;6.056;2023-11-18T00:31:18;78.45;;;20.73;;
69750;SDS011;57335;52.288;6.056;2023-11-18T00:33:45;68.95;;;19.85;;
69750;SDS011;57335;52.288;6.056;2023-11-18T00:36:11;83.63;;;22.25;;
69750;SDS011;57335;52.288;6.056;2023-11-18T00:38:39;76.55;;;20.30;;
69750;SDS011;57335;52.288;6.056;2023-11-18T00:41:06;79.07;;;20.23;;
69750;SDS011;57335;52.288;6.056;2023-11-18T00:43:32;69.85;;;19.77;;
69750;SDS011;57335;52.288;6.056;2023-11-18T00:45:59;78.32;;;19.67;;
69750;SDS011;57335;52.288;6.056;2023-11-18T00:48:25;67.97;;;19.88;;
69750;SDS011;57335;52.288;6.056;2023-11-18T00:50:52;73.07;;;18.73;;
69750;SDS011;57335;52.288;6.056;2023-11-18T00:53:18;62.53;;;19.48;;
69750;SDS011;57335;52.288;6.056;2023-11-18T00:55:45;72.90;;;19.20;;
69750;SDS011;57335;52.288;6.056;2023-11-18T00:58:11;66.55;;;19.73;;
69750;SDS011;57335;52.288;6.056;2023-11-18T01:00:38;69.82;;;18.30;;
69750;SDS011;57335;52.288;6.056;2023-11-18T01:03:05;67.00;;;18.75;;
69750;SDS011;57335;52.288;6.056;2023-11-18T01:05:31;65.55;;;20.00;;
69750;SDS011;57335;52.288;6.056;2023-11-18T01:07:58;65.90;;;19.17;;
69750;SDS011;57335;52.288;6.056;2023-11-18T01:10:24;71.88;;;21.42;;
69750;SDS011;57335;52.288;6.056;2023-11-18T01:12:51;79.22;;;22.27;;
69750;SDS011;57335;52.288;6.056;2023-11-18T01:15:17;61.95;;;19.00;;
69750;SDS011;57335;52.288;6.056;2023-11-18T01:17:44;76.47;;;21.70;;
69750;SDS011;57335;52.288;6.056;2023-11-18T01:20:10;73.35;;;21.92;;
69750;SDS011;57335;52.288;6.056;2023-11-18T01:22:39;60.58;;;18.88;;
69750;SDS011;57335;52.288;6.056;2023-11-18T01:25:08;78.97;;;20.75;;
69750;SDS011;57335;52.288;6.056;2023-11-18T01:27:34;80.38;;;22.73;;
69750;SDS011;57335;52.288;6.056;2023-11-18T01:32:27;67.95;;;20.02;;
69750;SDS011;57335;52.288;6.056;2023-11-18T01:34:56;72.97;;;21.15;;
69750;SDS011;57335;52.288;6.056;2023-11-18T01:37:23;73.13;;;20.75;;
69750;SDS011;57335;52.288;6.056;2023-11-18T01:39:50;73.88;;;20.73;;
69750;SDS011;57335;52.288;6.056;2023-11-18T01:42:17;74.80;;;21.75;;
69750;SDS011;57335;52.288;6.056;2023-11-18T01:47:10;75.53;;;21.27;;
69750;SDS011;57335;52.288;6.056;2023-11-18T01:49:38;71.53;;;21.35;;
69750;SDS011;57335;52.288;6.056;2023-11-18T01:52:07;78.55;;;22.40;;
69750;SDS011;57335;52.288;6.056;2023-11-18T01:54:34;78.93;;;21.48;;
69750;SDS011;57335;52.288;6.056;2023-11-18T01:57:04;78.85;;;21.48;;
69750;SDS011;57335;52.288;6.056;2023-11-18T01:59:34;78.10;;;21.02;;
69750;SDS011;57335;52.288;6.056;2023-11-18T02:02:01;73.68;;;21.58;;
69750;SDS011;57335;52.288;6.056;2023-11-18T02:04:29;73.95;;;22.45;;
69750;SDS011;57335;52.288;6.056;2023-11-18T02:06:57;82.70;;;21.27;;
69750;SDS011;57335;52.288;6.056;2023-11-18T02:09:24;69.82;;;21.67;;
69750;SDS011;57335;52.288;6.056;2023-11-18T02:12:00;76.75;;;23.10;;
69750;SDS011;57335;52.288;6.056;2023-11-18T02:14:30;71.68;;;20.27;;
69750;SDS011;57335;52.288;6.056;2023-11-18T02:16:59;75.97;;;21.88;;
69750;SDS011;57335;52.288;6.056;2023-11-18T02:19:28;74.32;;;20.20;;
69750;SDS011;57335;52.288;6.056;2023-11-18T02:21:56;75.05;;;20.92;;
69750;SDS011;57335;52.288;6.056;2023-11-18T02:24:27;69.25;;;21.30;;
69750;SDS011;57335;52.288;6.056;2023-11-18T02:26:57;64.30;;;19.95;;
69750;SDS011;57335;52.288;6.056;2023-11-18T02:29:24;71.05;;;19.95;;
69750;SDS011;57335;52.288;6.056;2023-11-18T02:31:53;72.28;;;20.23;;
69750;SDS011;57335;52.288;6.056;2023-11-18T02:34:29;72.00;;;20.63;;
69750;SDS011;57335;52.288;6.056;2023-11-18T02:36:58;72.57;;;20.27;;
69750;SDS011;57335;52.288;6.056;2023-11-18T02:39:32;56.40;;;17.08;;
69750;SDS011;57335;52.288;6.056;2023-11-18T02:42:04;67.75;;;19.45;;
69750;SDS011;57335;52.288;6.056;2023-11-18T02:44:37;65.35;;;19.58;;
69750;SDS011;57335;52.288;6.056;2023-11-18T02:47:04;67.43;;;20.52;;
69750;SDS011;57335;52.288;6.056;2023-11-18T02:49:32;77.68;;;20.92;;
69750;SDS011;57335;52.288;6.056;2023-11-18T02:52:01;79.05;;;20.88;;
69750;SDS011;57335;52.288;6.056;2023-11-18T02:54:28;79.63;;;21.40;;
69750;SDS011;57335;52.288;6.056;2023-11-18T02:56:55;82.97;;;21.65;;
69750;SDS011;57335;52.288;6.056;2023-11-18T02:59:22;109.28;;;23.65;;
69750;SDS011;57335;52.288;6.056;2023-11-18T03:06:45;100.65;;;22.20;;
69750;SDS011;57335;52.288;6.056;2023-11-18T03:09:12;119.45;;;22.60;;
69750;SDS011;57335;52.288;6.056;2023-11-18T03:11:39;95.97;;;21.52;;
69750;SDS011;57335;52.288;6.056;2023-11-18T03:14:06;118.75;;;22.73;;
69750;SDS011;57335;52.288;6.056;2023-11-18T03:16:36;102.65;;;24.55;;
69750;SDS011;57335;52.288;6.056;2023-11-18T03:19:04;143.20;;;25.08;;
69750;SDS011;57335;52.288;6.056;2023-11-18T03:21:31;153.48;;;25.70;;
69750;SDS011;57335;52.288;6.056;2023-11-18T03:23:57;142.05;;;25.17;;
69750;SDS011;57335;52.288;6.056;2023-11-18T03:26:24;135.50;;;25.02;;
69750;SDS011;57335;52.288;6.056;2023-11-18T03:28:52;196.02;;;27.73;;
69750;SDS011;57335;52.288;6.056;2023-11-18T03:31:18;164.38;;;26.33;;
69750;SDS011;57335;52.288;6.056;2023-11-18T03:33:46;202.13;;;29.33;;
69750;SDS011;57335;52.288;6.056;2023-11-18T03:36:12;221.57;;;28.67;;
69750;SDS011;57335;52.288;6.056;2023-11-18T03:38:39;145.63;;;24.58;;
69750;SDS011;57335;52.288;6.056;2023-11-18T03:41:05;192.23;;;28.63;;
69750;SDS011;57335;52.288;6.056;2023-11-18T03:43:34;140.60;;;25.20;;
69750;SDS011;57335;52.288;6.056;2023-11-18T03:46:01;156.77;;;26.77;;
69750;SDS011;57335;52.288;6.056;2023-11-18T03:48:27;167.63;;;27.77;;
69750;SDS011;57335;52.288;6.056;2023-11-18T03:50:54;212.00;;;28.45;;
69750;SDS011;57335;52.288;6.056;2023-11-18T03:53:20;171.63;;;29.15;;
69750;SDS011;57335;52.288;6.056;2023-11-18T03:55:47;158.02;;;27.58;;
69750;SDS011;57335;52.288;6.056;2023-11-18T03:58:13;198.27;;;29.13;;
69750;SDS011;57335;52.288;6.056;2023-11-18T04:00:40;156.02;;;26.50;;
69750;SDS011;57335;52.288;6.056;2023-11-18T04:03:06;182.52;;;31.02;;
69750;SDS011;57335;52.288;6.056;2023-11-18T04:05:33;171.05;;;26.40;;
69750;SDS011;57335;52.288;6.056;2023-11-18T04:08:01;177.60;;;28.48;;
69750;SDS011;57335;52.288;6.056;2023-11-18T04:10:27;180.77;;;29.17;;
69750;SDS011;57335;52.288;6.056;2023-11-18T04:12:54;237.10;;;33.38;;
69750;SDS011;57335;52.288;6.056;2023-11-18T04:15:20;189.45;;;28.23;;
69750;SDS011;57335;52.288;6.056;2023-11-18T04:17:46;198.13;;;29.10;;
69750;SDS011;57335;52.288;6.056;2023-11-18T04:20:13;208.90;;;30.20;;
69750;SDS011;57335;52.288;6.056;2023-11-18T04:22:42;188.55;;;28.48;;
69750;SDS011;57335;52.288;6.056;2023-11-18T04:25:09;188.25;;;28.90;;
69750;SDS011;57335;52.288;6.056;2023-11-18T04:27:40;149.95;;;27.08;;
69750;SDS011;57335;52.288;6.056;2023-11-18T04:30:12;178.13;;;27.02;;
69750;SDS011;57335;52.288;6.056;2023-11-18T04:32:39;137.68;;;27.98;;
69750;SDS011;57335;52.288;6.056;2023-11-18T04:35:09;185.02;;;28.45;;
69750;SDS011;57335;52.288;6.056;2023-11-18T04:37:38;216.50;;;30.55;;
69750;SDS011;57335;52.288;6.056;2023-11-18T04:40:06;153.93;;;27.50;;
69750;SDS011;57335;52.288;6.056;2023-11-18T04:42:35;181.80;;;29.50;;
69750;SDS011;57335;52.288;6.056;2023-11-18T04:45:03;141.88;;;25.00;;
69750;SDS011;57335;52.288;6.056;2023-11-18T04:47:30;138.85;;;25.92;;
69750;SDS011;57335;52.288;6.056;2023-11-18T04:49:57;126.75;;;25.50;;
69750;SDS011;57335;52.288;6.056;2023-11-18T04:52:23;133.82;;;26.58;;
69750;SDS011;57335;52.288;6.056;2023-11-18T04:57:16;105.60;;;21.15;;
69750;SDS011;57335;52.288;6.056;2023-11-18T04:59:43;129.40;;;26.42;;
69750;SDS011;57335;52.288;6.056;2023-11-18T05:02:09;96.60;;;21.00;;
69750;SDS011;57335;52.288;6.056;2023-11-18T05:04:36;109.07;;;22.35;;
69750;SDS011;57335;52.288;6.056;2023-11-18T05:07:03;116.15;;;23.65;;
69750;SDS011;57335;52.288;6.056;2023-11-18T05:09:30;97.43;;;21.85;;
69750;SDS011;57335;52.288;6.056;2023-11-18T05:11:57;117.15;;;23.75;;
69750;SDS011;57335;52.288;6.056;2023-11-18T05:14:24;117.90;;;24.45;;
69750;SDS011;57335;52.288;6.056;2023-11-18T05:16:52;108.32;;;22.92;;
69750;SDS011;57335;52.288;6.056;2023-11-18T05:19:19;100.10;;;23.70;;
69750;SDS011;57335;52.288;6.056;2023-11-18T05:21:46;106.00;;;23.70;;
69750;SDS011;57335;52.288;6.056;2023-11-18T05:24:16;131.52;;;26.73;;
69750;SDS011;57335;52.288;6.056;2023-11-18T05:26:42;87.72;;;22.33;;
69750;SDS011;57335;52.288;6.056;2023-11-18T05:29:09;99.45;;;22.80;;
69750;SDS011;57335;52.288;6.056;2023-11-18T05:31:36;95.40;;;22.80;;
69750;SDS011;57335;52.288;6.056;2023-11-18T05:34:03;89.88;;;23.48;;
69750;SDS011;57335;52.288;6.056;2023-11-18T05:36:31;98.25;;;21.17;;
69750;SDS011;57335;52.288;6.056;2023-11-18T05:39:03;96.45;;;23.17;;
69750;SDS011;57335;52.288;6.056;2023-11-18T05:41:31;96.05;;;22.88;;
69750;SDS011;57335;52.288;6.056;2023-11-18T05:43:58;93.32;;;23.30;;
69750;SDS011;57335;52.288;6.056;2023-11-18T05:46:25;103.70;;;23.73;;
69750;SDS011;57335;52.288;6.056;2023-11-18T05:48:56;110.97;;;23.90;;
69750;SDS011;57335;52.288;6.056;2023-11-18T05:51:25;99.47;;;23.35;;
69750;SDS011;57335;52.288;6.056;2023-11-18T05:53:53;81.22;;;20.27;;
69750;SDS011;57335;52.288;6.056;2023-11-18T05:56:19;90.13;;;22.38;;
69750;SDS011;57335;52.288;6.056;2023-11-18T05:58:49;90.53;;;22.67;;
69750;SDS011;57335;52.288;6.056;2023-11-18T06:01:16;92.30;;;23.25;;
69750;SDS011;57335;52.288;6.056;2023-11-18T06:03:43;82.43;;;22.00;;
69750;SDS011;57335;52.288;6.056;2023-11-18T06:06:11;82.55;;;21.88;;
69750;SDS011;57335;52.288;6.056;2023-11-18T06:08:39;81.53;;;22.08;;
69750;SDS011;57335;52.288;6.056;2023-11-18T06:11:09;83.10;;;21.33;;
69750;SDS011;57335;52.288;6.056;2023-11-18T06:16:17;77.93;;;19.85;;
69750;SDS011;57335;52.288;6.056;2023-11-18T06:18:49;81.55;;;21.27;;
69750;SDS011;57335;52.288;6.056;2023-11-18T06:21:18;69.07;;;21.33;;
69750;SDS011;57335;52.288;6.056;2023-11-18T06:23:51;86.40;;;20.92;;
69750;SDS011;57335;52.288;6.056;2023-11-18T06:26:18;81.43;;;20.63;;
69750;SDS011;57335;52.288;6.056;2023-11-18T06:28:45;79.80;;;21.48;;
69750;SDS011;57335;52.288;6.056;2023-11-18T06:31:12;90.50;;;22.40;;
69750;SDS011;57335;52.288;6.056;2023-11-18T06:33:40;81.20;;;21.38;;
69750;SDS011;57335;52.288;6.056;2023-11-18T06:38:40;75.00;;;20.02;;
69750;SDS011;57335;52.288;6.056;2023-11-18T06:41:07;81.38;;;22.42;;
69750;SDS011;57335;52.288;6.056;2023-11-18T06:43:38;87.22;;;21.52;;
69750;SDS011;57335;52.288;6.056;2023-11-18T06:46:35;71.32;;;20.75;;
69750;SDS011;57335;52.288;6.056;2023-11-18T06:49:03;63.65;;;18.45;;
69750;SDS011;57335;52.288;6.056;2023-11-18T06:51:31;67.53;;;19.77;;
69750;SDS011;57335;52.288;6.056;2023-11-18T06:54:02;70.93;;;21.58;;
69750;SDS011;57335;52.288;6.056;2023-11-18T06:56:37;66.63;;;20.23;;
69750;SDS011;57335;52.288;6.056;2023-11-18T06:59:05;76.55;;;21.17;;
69750;SDS011;57335;52.288;6.056;2023-11-18T07:01:36;78.90;;;22.15;;
69750;SDS011;57335;52.288;6.056;2023-11-18T07:04:03;72.47;;;21.90;;
69750;SDS011;57335;52.288;6.056;2023-11-18T07:06:29;70.20;;;20.92;;
69750;SDS011;57335;52.288;6.056;2023-11-18T07:08:57;69.57;;;22.25;;
69750;SDS011;57335;52.288;6.056;2023-11-18T07:11:26;67.70;;;21.02;;
69750;SDS011;57335;52.288;6.056;2023-11-18T07:13:53;63.38;;;19.67;;
69750;SDS011;57335;52.288;6.056;2023-11-18T07:16:23;58.95;;;19.95;;
69750;SDS011;57335;52.288;6.056;2023-11-18T07:18:51;64.43;;;22.10;;
69750;SDS011;57335;52.288;6.056;2023-11-18T07:21:18;69.20;;;21.55;;
69750;SDS011;57335;52.288;6.056;2023-11-18T07:23:45;65.50;;;20.25;;
69750;SDS011;57335;52.288;6.056;2023-11-18T07:26:11;62.13;;;21.63;;
69750;SDS011;57335;52.288;6.056;2023-11-18T07:28:40;65.00;;;21.65;;
69750;SDS011;57335;52.288;6.056;2023-11-18T07:31:07;60.85;;;20.13;;
69750;SDS011;57335;52.288;6.056;2023-11-18T07:33:34;66.25;;;21.88;;
69750;SDS011;57335;52.288;6.056;2023-11-18T07:36:00;60.90;;;20.42;;
69750;SDS011;57335;52.288;6.056;2023-11-18T07:38:31;53.72;;;19.90;;
69750;SDS011;57335;52.288;6.056;2023-11-18T07:40:59;59.25;;;20.25;;
69750;SDS011;57335;52.288;6.056;2023-11-18T07:43:28;52.63;;;19.50;;
69750;SDS011;57335;52.288;6.056;2023-11-18T07:45:55;50.70;;;18.58;;
69750;SDS011;57335;52.288;6.056;2023-11-18T07:48:21;55.13;;;19.17;;
69750;SDS011;57335;52.288;6.056;2023-11-18T07:50:48;49.28;;;17.10;;
69750;SDS011;57335;52.288;6.056;2023-11-18T07:53:14;37.97;;;16.98;;
69750;SDS011;57335;52.288;6.056;2023-11-18T07:55:42;49.28;;;17.70;;
69750;SDS011;57335;52.288;6.056;2023-11-18T07:58:09;50.35;;;17.25;;
69750;SDS011;57335;52.288;6.056;2023-11-18T08:00:41;43.15;;;17.23;;
69750;SDS011;57335;52.288;6.056;2023-11-18T08:03:09;38.70;;;15.43;;
69750;SDS011;57335;52.288;6.056;2023-11-18T08:05:43;41.33;;;17.05;;
69750;SDS011;57335;52.288;6.056;2023-11-18T08:08:11;41.13;;;16.25;;
69750;SDS011;57335;52.288;6.056;2023-11-18T08:10:40;42.53;;;16.38;;
69750;SDS011;57335;52.288;6.056;2023-11-18T08:13:08;41.60;;;15.05;;
69750;SDS011;57335;52.288;6.056;2023-11-18T08:15:38;39.05;;;15.88;;
69750;SDS011;57335;52.288;6.056;2023-11-18T08:18:06;41.97;;;15.27;;
69750;SDS011;57335;52.288;6.056;2023-11-18T08:20:33;41.95;;;14.63;;
69750;SDS011;57335;52.288;6.056;2023-11-18T08:22:59;42.22;;;14.13;;
69750;SDS011;57335;52.288;6.056;2023-11-18T08:25:26;45.05;;;15.82;;
69750;SDS011;57335;52.288;6.056;2023-11-18T08:27:52;35.53;;;13.43;;
69750;SDS011;57335;52.288;6.056;2023-11-18T08:30:19;37.65;;;13.13;;
69750;SDS011;57335;52.288;6.056;2023-11-18T08:32:47;36.17;;;14.63;;
69750;SDS011;57335;52.288;6.056;2023-11-18T08:35:14;33.80;;;13.77;;
69750;SDS011;57335;52.288;6.056;2023-11-18T08:37:42;41.22;;;15.07;;
69750;SDS011;57335;52.288;6.056;2023-11-18T08:40:09;41.33;;;14.80;;
69750;SDS011;57335;52.288;6.056;2023-11-18T08:42:46;37.08;;;13.15;;
69750;SDS011;57335;52.288;6.056;2023-11-18T08:45:17;39.85;;;14.80;;
69750;SDS011;57335;52.288;6.056;2023-11-18T08:47:56;34.20;;;12.93;;
69750;SDS011;57335;52.288;6.056;2023-11-18T08:50:23;41.95;;;13.70;;
69750;SDS011;57335;52.288;6.056;2023-11-18T08:52:51;41.75;;;13.43;;
69750;SDS011;57335;52.288;6.056;2023-11-18T08:55:26;44.17;;;13.85;;
69750;SDS011;57335;52.288;6.056;2023-11-18T08:58:09;31.52;;;11.65;;
69750;SDS011;57335;52.288;6.056;2023-11-18T09:00:47;31.30;;;12.48;;
69750;SDS011;57335;52.288;6.056;2023-11-18T09:03:23;36.20;;;13.23;;
69750;SDS011;57335;52.288;6.056;2023-11-18T09:06:04;37.92;;;13.02;;
69750;SDS011;57335;52.288;6.056;2023-11-18T09:08:33;34.17;;;12.57;;
69750;SDS011;57335;52.288;6.056;2023-11-18T09:11:01;40.63;;;14.82;;
69750;SDS011;57335;52.288;6.056;2023-11-18T09:13:31;37.97;;;13.70;;
69750;SDS011;57335;52.288;6.056;2023-11-18T09:16:04;36.78;;;12.63;;
69750;SDS011;57335;52.288;6.056;2023-11-18T09:18:36;37.90;;;11.38;;
69750;SDS011;57335;52.288;6.056;2023-11-18T09:21:08;32.83;;;10.93;;
69750;SDS011;57335;52.288;6.056;2023-11-18T09:23:41;34.53;;;12.85;;
69750;SDS011;57335;52.288;6.056;2023-11-18T09:26:08;33.33;;;12.45;;
69750;SDS011;57335;52.288;6.056;2023-11-18T09:28:37;39.78;;;13.45;;
69750;SDS011;57335;52.288;6.056;2023-11-18T09:31:04;37.53;;;12.32;;
69750;SDS011;57335;52.288;6.056;2023-11-18T09:33:31;39.17;;;13.82;;
69750;SDS011;57335;52.288;6.056;2023-11-18T09:36:03;42.83;;;13.20;;
69750;SDS011;57335;52.288;6.056;2023-11-18T09:38:34;32.08;;;11.32;;
69750;SDS011;57335;52.288;6.056;2023-11-18T09:41:03;31.88;;;10.85;;
69750;SDS011;57335;52.288;6.056;2023-11-18T09:43:33;40.15;;;12.85;;
69750;SDS011;57335;52.288;6.056;2023-11-18T09:46:09;37.92;;;13.30;;
69750;SDS011;57335;52.288;6.056;2023-11-18T09:48:43;39.33;;;13.73;;
69750;SDS011;57335;52.288;6.056;2023-11-18T09:51:14;39.38;;;12.23;;
69750;SDS011;57335;52.288;6.056;2023-11-18T09:53:44;34.13;;;11.80;;
69750;SDS011;57335;52.288;6.056;2023-11-18T09:56:31;31.73;;;11.85;;
69750;SDS011;57335;52.288;6.056;2023-11-18T10:02:24;36.33;;;11.60;;
69750;SDS011;57335;52.288;6.056;2023-11-18T10:04:52;31.75;;;10.88;;
69750;SDS011;57335;52.288;6.056;2023-11-18T10:07:24;34.10;;;11.75;;
69750;SDS011;57335;52.288;6.056;2023-11-18T10:09:56;30.88;;;10.40;;
69750;SDS011;57335;52.288;6.056;2023-11-18T10:12:23;28.80;;;9.90;;
69750;SDS011;57335;52.288;6.056;2023-11-18T10:14:53;28.77;;;10.57;;
69750;SDS011;57335;52.288;6.056;2023-11-18T10:17:19;31.92;;;10.73;;
69750;SDS011;57335;52.288;6.056;2023-11-18T10:19:54;31.75;;;10.45;;
69750;SDS011;57335;52.288;6.056;2023-11-18T10:22:24;28.05;;;9.18;;
69750;SDS011;57335;52.288;6.056;2023-11-18T10:24:54;29.27;;;8.98;;
69750;SDS011;57335;52.288;6.056;2023-11-18T10:27:22;22.90;;;8.27;;
69750;SDS011;57335;52.288;6.056;2023-11-18T10:30:12;30.35;;;10.50;;
69750;SDS011;57335;52.288;6.056;2023-11-18T10:32:58;26.63;;;9.10;;
69750;SDS011;57335;52.288;6.056;2023-11-18T10:35:32;25.63;;;8.98;;
69750;SDS011;57335;52.288;6.056;2023-11-18T10:38:01;26.73;;;8.52;;
69750;SDS011;57335;52.288;6.056;2023-11-18T10:40:34;24.23;;;8.13;;
69750;SDS011;57335;52.288;6.056;2023-11-18T10:43:03;27.42;;;9.40;;
69750;SDS011;57335;52.288;6.056;2023-11-18T10:45:36;25.40;;;8.85;;
69750;SDS011;57335;52.288;6.056;2023-11-18T10:48:11;25.25;;;8.68;;
69750;SDS011;57335;52.288;6.056;2023-11-18T10:50:39;28.00;;;8.85;;
69750;SDS011;57335;52.288;6.056;2023-11-18T10:53:05;25.48;;;8.63;;
69750;SDS011;57335;52.288;6.056;2023-11-18T10:55:37;24.73;;;9.27;;
69750;SDS011;57335;52.288;6.056;2023-11-18T10:58:04;26.55;;;9.27;;
69750;SDS011;57335;52.288;6.056;2023-11-18T11:00:45;26.67;;;8.27;;
69750;SDS011;57335;52.288;6.056;2023-11-18T11:03:14;22.63;;;8.45;;
69750;SDS011;57335;52.288;6.056;2023-11-18T11:05:41;23.52;;;8.85;;
69750;SDS011;57335;52.288;6.056;2023-11-18T11:08:16;24.45;;;8.60;;
69750;SDS011;57335;52.288;6.056;2023-11-18T11:10:58;23.58;;;7.85;;
69750;SDS011;57335;52.288;6.056;2023-11-18T11:13:29;27.63;;;8.82;;
69750;SDS011;57335;52.288;6.056;2023-11-18T11:15:58;26.55;;;8.02;;
69750;SDS011;57335;52.288;6.056;2023-11-18T11:18:28;21.35;;;7.75;;
69750;SDS011;57335;52.288;6.056;2023-11-18T11:21:06;23.88;;;7.40;;
69750;SDS011;57335;52.288;6.056;2023-11-18T11:23:48;24.20;;;8.30;;
69750;SDS011;57335;52.288;6.056;2023-11-18T11:26:23;20.88;;;7.40;;
69750;SDS011;57335;52.288;6.056;2023-11-18T11:29:04;23.40;;;7.93;;
69750;SDS011;57335;52.288;6.056;2023-11-18T11:31:48;23.38;;;7.97;;
69750;SDS011;57335;52.288;6.056;2023-11-18T11:34:33;23.42;;;7.78;;
69750;SDS011;57335;52.288;6.056;2023-11-18T11:37:01;20.08;;;7.88;;
69750;SDS011;57335;52.288;6.056;2023-11-18T11:39:29;21.70;;;8.00;;
69750;SDS011;57335;52.288;6.056;2023-11-18T11:41:56;22.40;;;8.32;;
69750;SDS011;57335;52.288;6.056;2023-11-18T11:44:25;19.30;;;7.07;;
69750;SDS011;57335;52.288;6.056;2023-11-18T11:46:58;24.17;;;7.45;;
69750;SDS011;57335;52.288;6.056;2023-11-18T11:49:32;23.23;;;8.18;;
69750;SDS011;57335;52.288;6.056;2023-11-18T11:52:18;19.83;;;6.95;;
69750;SDS011;57335;52.288;6.056;2023-11-18T11:54:56;27.00;;;8.90;;
69750;SDS011;57335;52.288;6.056;2023-11-18T11:57:29;22.30;;;7.60;;
69750;SDS011;57335;52.288;6.056;2023-11-18T12:00:00;24.13;;;7.50;;
69750;SDS011;57335;52.288;6.056;2023-11-18T12:02:47;23.95;;;7.40;;
69750;SDS011;57335;52.288;6.056;2023-11-18T12:05:15;23.92;;;7.13;;
69750;SDS011;57335;52.288;6.056;2023-11-18T12:07:46;23.13;;;7.45;;
69750;SDS011;57335;52.288;6.056;2023-11-18T12:10:13;27.83;;;8.52;;
69750;SDS011;57335;52.288;6.056;2023-11-18T12:12:47;20.20;;;6.88;;
69750;SDS011;57335;52.288;6.056;2023-11-18T12:15:14;24.98;;;7.70;;
69750;SDS011;57335;52.288;6.056;2023-11-18T12:20:40;23.52;;;8.63;;
69750;SDS011;57335;52.288;6.056;2023-11-18T12:23:13;23.40;;;7.88;;
69750;SDS011;57335;52.288;6.056;2023-11-18T12:25:41;20.75;;;7.90;;
69750;SDS011;57335;52.288;6.056;2023-11-18T12:28:10;20.10;;;7.55;;
69750;SDS011;57335;52.288;6.056;2023-11-18T12:30:37;23.35;;;8.30;;
69750;SDS011;57335;52.288;6.056;2023-11-18T12:33:07;18.85;;;6.95;;
69750;SDS011;57335;52.288;6.056;2023-11-18T12:35:39;22.05;;;7.40;;
69750;SDS011;57335;52.288;6.056;2023-11-18T12:38:46;21.23;;;7.22;;
69750;SDS011;57335;52.288;6.056;2023-11-18T12:41:41;21.58;;;8.80;;
69750;SDS011;57335;52.288;6.056;2023-11-18T12:44:15;20.90;;;8.18;;
69750;SDS011;57335;52.288;6.056;2023-11-18T12:46:59;22.48;;;7.50;;
69750;SDS011;57335;52.288;6.056;2023-11-18T12:49:37;19.08;;;7.35;;
69750;SDS011;57335;52.288;6.056;2023-11-18T12:52:08;17.95;;;6.63;;
69750;SDS011;57335;52.288;6.056;2023-11-18T12:54:35;22.38;;;7.18;;
69750;SDS011;57335;52.288;6.056;2023-11-18T12:57:04;14.95;;;5.95;;
69750;SDS011;57335;52.288;6.056;2023-11-18T12:59:34;16.77;;;5.30;;
69750;SDS011;57335;52.288;6.056;2023-11-18T13:02:00;17.38;;;6.82;;
69750;SDS011;57335;52.288;6.056;2023-11-18T13:04:30;19.73;;;6.38;;
69750;SDS011;57335;52.288;6.056;2023-11-18T13:06:57;16.63;;;6.13;;
69750;SDS011;57335;52.288;6.056;2023-11-18T13:09:26;15.55;;;6.10;;
69750;SDS011;57335;52.288;6.056;2023-11-18T13:11:59;16.23;;;6.13;;
69750;SDS011;57335;52.288;6.056;2023-11-18T13:14:33;21.90;;;6.00;;
69750;SDS011;57335;52.288;6.056;2023-11-18T13:17:03;15.23;;;5.57;;
69750;SDS011;57335;52.288;6.056;2023-11-18T13:19:35;14.90;;;6.28;;
69750;SDS011;57335;52.288;6.056;2023-11-18T13:22:01;15.85;;;6.25;;
69750;SDS011;57335;52.288;6.056;2023-11-18T13:24:35;15.77;;;5.32;;
69750;SDS011;57335;52.288;6.056;2023-11-18T13:27:06;17.08;;;5.57;;
69750;SDS011;57335;52.288;6.056;2023-11-18T13:29:35;17.42;;;6.25;;
69750;SDS011;57335;52.288;6.056;2023-11-18T13:32:02;15.27;;;5.85;;
69750;SDS011;57335;52.288;6.056;2023-11-18T13:34:31;16.77;;;6.07;;
69750;SDS011;57335;52.288;6.056;2023-11-18T13:36:59;15.40;;;5.72;;
69750;SDS011;57335;52.288;6.056;2023-11-18T13:39:26;13.18;;;4.40;;
69750;SDS011;57335;52.288;6.056;2023-11-18T13:41:53;14.77;;;5.35;;
69750;SDS011;57335;52.288;6.056;2023-11-18T13:44:32;14.85;;;4.30;;
69750;SDS011;57335;52.288;6.056;2023-11-18T13:49:32;16.52;;;5.18;;
69750;SDS011;57335;52.288;6.056;2023-11-18T13:52:01;14.25;;;4.88;;
69750;SDS011;57335;52.288;6.056;2023-11-18T13:54:28;15.13;;;4.68;;
69750;SDS011;57335;52.288;6.056;2023-11-18T13:57:01;11.27;;;4.60;;
69750;SDS011;57335;52.288;6.056;2023-11-18T13:59:32;14.02;;;4.70;;
69750;SDS011;57335;52.288;6.056;2023-11-18T14:01:59;13.45;;;5.07;;
69750;SDS011;57335;52.288;6.056;2023-11-18T14:04:29;14.45;;;4.65;;
69750;SDS011;57335;52.288;6.056;2023-11-18T14:06:56;11.88;;;4.85;;
69750;SDS011;57335;52.288;6.056;2023-11-18T14:09:24;12.65;;;4.93;;
69750;SDS011;57335;52.288;6.056;2023-11-18T14:11:56;14.52;;;5.03;;
69750;SDS011;57335;52.288;6.056;2023-11-18T14:14:23;11.27;;;4.45;;
69750;SDS011;57335;52.288;6.056;2023-11-18T14:16:51;13.23;;;3.85;;
69750;SDS011;57335;52.288;6.056;2023-11-18T14:19:27;12.90;;;4.45;;
69750;SDS011;57335;52.288;6.056;2023-11-18T14:21:54;13.38;;;4.72;;
69750;SDS011;57335;52.288;6.056;2023-11-18T14:24:22;14.30;;;4.35;;
69750;SDS011;57335;52.288;6.056;2023-11-18T14:26:49;10.18;;;4.13;;
69750;SDS011;57335;52.288;6.056;2023-11-18T14:29:16;9.85;;;3.67;;
69750;SDS011;57335;52.288;6.056;2023-11-18T14:31:43;9.20;;;3.53;;
69750;SDS011;57335;52.288;6.056;2023-11-18T14:34:11;10.82;;;3.83;;
69750;SDS011;57335;52.288;6.056;2023-11-18T14:36:37;10.48;;;4.03;;
69750;SDS011;57335;52.288;6.056;2023-11-18T14:39:04;10.23;;;3.60;;
69750;SDS011;57335;52.288;6.056;2023-11-18T14:41:31;9.80;;;4.10;;
69750;SDS011;57335;52.288;6.056;2023-11-18T14:43:57;11.27;;;3.40;;
69750;SDS011;57335;52.288;6.056;2023-11-18T14:46:24;9.88;;;3.63;;
69750;SDS011;57335;52.288;6.056;2023-11-18T14:48:51;12.18;;;4.22;;
69750;SDS011;57335;52.288;6.056;2023-11-18T14:51:18;14.07;;;5.70;;
69750;SDS011;57335;52.288;6.056;2023-11-18T14:53:44;12.50;;;5.10;;
69750;SDS011;57335;52.288;6.056;2023-11-18T14:56:10;13.32;;;5.38;;
69750;SDS011;57335;52.288;6.056;2023-11-18T14:58:37;13.20;;;5.10;;
69750;SDS011;57335;52.288;6.056;2023-11-18T15:01:04;13.40;;;5.20;;
69750;SDS011;57335;52.288;6.056;2023-11-18T15:03:33;15.13;;;5.18;;
69750;SDS011;57335;52.288;6.056;2023-11-18T15:06:01;10.75;;;4.78;;